Time;durP1;ratioP1;P1;durP2;ratioP2;P2;SDS_P1;SDS_P2;PMS_P1;PMS_P2;Temp;Humidity;BMP_temperature;BMP_pressure;BME280_temperature;BME280_humidity;BME280_pressure;Samples;Min_cycle;Max_cycle;Signal;HPM_P1;HPM_P2
2022/05/24 00:04:16;;;;;;;3.75;2.25;;;;;;;16.54;56.64;98607.81;10425344;28;20048;-78
2022/05/24 00:09:18;;;;;;;3.38;2.00;;;;;;;16.42;56.99;98609.06;10426240;28;20072;-78
2022/05/24 00:15:19;;;;;;;3.25;2.03;;;;;;;16.27;57.12;98611.47;10424208;28;20671;-78
2022/05/24 00:19:43;;;;;;;4.57;1.88;;;;;;;16.19;56.93;98611.44;10427869;28;20115;-79
2022/05/24 00:24:45;;;;;;;2.95;1.80;;;;;;;16.07;57.13;98610.91;10425835;28;20061;-79
2022/05/24 00:29:47;;;;;;;4.90;1.92;;;;;;;16.01;57.65;98619.47;10422032;28;20067;-79
2022/05/24 00:34:49;;;;;;;2.53;1.60;;;;;;;15.92;57.48;98616.91;10424857;28;20974;-78
2022/05/24 00:39:51;;;;;;;3.70;1.73;;;;;;;15.88;57.62;98624.31;10421987;28;20084;-79
2022/05/24 00:45:34;;;;;;;2.90;1.83;;;;;;;15.83;58.03;98623.97;10430190;28;20096;-79
2022/05/24 00:50:40;;;;;;;3.20;1.80;;;;;;;15.88;57.85;98612.94;10428154;28;20156;-79
2022/05/24 00:56:06;;;;;;;3.55;1.60;;;;;;;15.80;58.29;98620.81;10430348;28;20095;-78
2022/05/24 01:01:38;;;;;;;2.33;1.70;;;;;;;15.88;58.06;98621.69;10438701;28;20679;-79
2022/05/24 01:06:40;;;;;;;4.55;1.77;;;;;;;15.93;58.01;98644.94;10427570;28;20055;-79
2022/05/24 01:11:46;;;;;;;2.83;1.70;;;;;;;15.95;58.24;98648.25;10429244;28;20060;-79
2022/05/24 01:16:48;;;;;;;3.70;1.80;;;;;;;16.01;57.70;98651.09;10429845;28;20540;-79
2022/05/24 01:21:54;;;;;;;3.97;1.70;;;;;;;15.99;57.37;98642.53;10433448;28;20147;-79
2022/05/24 01:26:57;;;;;;;6.90;1.90;;;;;;;15.91;57.58;98636.38;10431861;28;20087;-79
2022/05/24 01:37:20;;;;;;;3.53;2.00;;;;;;;15.70;58.38;98622.72;10432545;28;20049;-79
2022/05/24 01:42:24;;;;;;;2.67;1.80;;;;;;;15.63;58.73;98609.38;10431003;28;20181;-79
2022/05/24 01:47:27;;;;;;;2.78;1.73;;;;;;;15.49;58.83;98615.16;10431627;28;20048;-79
2022/05/24 01:52:34;;;;;;;3.67;2.00;;;;;;;15.32;59.43;98626.56;10429808;28;20087;-79
2022/05/24 01:57:50;;;;;;;3.60;1.90;;;;;;;15.03;60.27;98613.63;10431491;28;20343;-79
2022/05/24 02:02:52;;;;;;;4.85;1.95;;;;;;;14.90;60.42;98610.56;10433243;28;20064;-79
2022/05/24 02:07:54;;;;;;;3.40;2.00;;;;;;;14.64;60.56;98619.34;10438773;28;20501;-79
2022/05/24 02:12:59;;;;;;;4.20;2.15;;;;;;;14.62;60.88;98624.75;10443228;28;20079;-79
2022/05/24 02:18:29;;;;;;;5.30;2.58;;;;;;;14.65;61.77;98629.72;10439182;28;20098;-79
2022/05/24 02:23:39;;;;;;;5.60;2.42;;;;;;;14.86;61.16;98603.94;10439558;28;20053;-79
2022/05/24 02:28:41;;;;;;;3.63;2.10;;;;;;;14.93;60.94;98591.84;10437433;28;20073;-79
2022/05/24 02:33:45;;;;;;;3.97;2.03;;;;;;;15.13;60.86;98590.69;10442856;28;20053;-79
2022/05/24 02:38:47;;;;;;;5.55;1.80;;;;;;;15.18;60.49;98593.69;10441157;28;20045;-79
2022/05/24 02:43:49;;;;;;;3.67;1.90;;;;;;;15.31;60.24;98588.00;10439737;28;20742;-79
2022/05/24 02:48:51;;;;;;;3.75;1.90;;;;;;;15.36;60.48;98601.56;10439922;28;20045;-79
2022/05/24 02:53:54;;;;;;;8.23;1.90;;;;;;;15.34;60.48;98596.44;10439349;28;20096;-79
2022/05/24 02:58:55;;;;;;;3.25;2.00;;;;;;;15.42;60.76;98582.50;10436946;28;20083;-79
2022/05/24 03:03:57;;;;;;;6.03;2.40;;;;;;;15.46;60.14;98583.00;10435504;28;20143;-79
2022/05/24 03:14:23;;;;;;;5.53;2.20;;;;;;;15.32;60.27;98566.81;10426855;28;20114;-79
2022/05/24 03:19:25;;;;;;;3.67;1.63;;;;;;;15.19;60.54;98562.91;10427366;28;20048;-79
2022/05/24 03:24:26;;;;;;;4.03;2.10;;;;;;;15.08;60.89;98556.06;10429028;28;20552;-79
2022/05/24 03:29:28;;;;;;;4.15;2.03;;;;;;;15.03;60.84;98539.09;10426778;28;20092;-79
2022/05/24 03:34:30;;;;;;;4.90;2.17;;;;;;;15.00;60.87;98542.84;10430015;28;20057;-79
2022/05/24 03:39:32;;;;;;;3.88;1.98;;;;;;;15.11;60.95;98557.56;10429033;28;20432;-79
2022/05/24 03:44:34;;;;;;;4.65;2.40;;;;;;;15.18;61.36;98551.56;10429172;28;20295;-79
2022/05/24 03:49:36;;;;;;;6.40;2.10;;;;;;;15.09;60.72;98549.84;10427108;28;21721;-79
2022/05/24 03:54:37;;;;;;;5.40;2.42;;;;;;;15.16;61.31;98553.50;10431873;28;20126;-79
2022/05/24 03:59:40;;;;;;;3.38;2.35;;;;;;;14.98;60.95;98557.16;10431057;28;20045;-79
2022/05/24 04:04:42;;;;;;;4.88;2.47;;;;;;;14.96;61.36;98559.13;10424725;28;20089;-79
2022/05/24 04:09:45;;;;;;;4.70;2.50;;;;;;;14.97;61.62;98566.84;10431671;28;20049;-79
2022/05/24 04:14:47;;;;;;;5.38;2.30;;;;;;;14.99;61.77;98571.97;10429213;28;20110;-79
2022/05/24 04:19:49;;;;;;;4.75;2.13;;;;;;;15.19;61.39;98573.44;10433026;28;20111;-79
2022/05/24 04:24:51;;;;;;;5.40;2.40;;;;;;;15.25;61.84;98580.72;10429422;28;20099;-78
2022/05/24 04:29:54;;;;;;;5.65;2.53;;;;;;;15.16;62.51;98586.94;10432242;28;20080;-79
2022/05/24 04:34:56;;;;;;;7.05;2.83;;;;;;;15.19;63.24;98589.25;10430079;28;20048;-79
2022/05/24 04:39:58;;;;;;;6.80;2.70;;;;;;;15.22;63.65;98602.13;10435048;28;20053;-79
2022/05/24 04:45:03;;;;;;;7.93;3.33;;;;;;;15.26;64.05;98614.00;10439669;28;20134;-79
2022/05/24 04:50:08;;;;;;;5.00;2.95;;;;;;;15.23;64.31;98617.75;10439868;28;20118;-79
2022/05/24 04:55:13;;;;;;;5.97;3.05;;;;;;;15.18;65.00;98625.31;10438623;28;20049;-79
2022/05/24 05:00:16;;;;;;;4.93;2.92;;;;;;;15.23;64.80;98632.72;10442155;28;20049;-79
2022/05/24 05:05:19;;;;;;;7.03;3.28;;;;;;;15.31;64.90;98632.78;10436078;28;20053;-79
2022/05/24 05:10:27;;;;;;;6.35;3.75;;;;;;;15.36;64.96;98638.44;10430204;28;20442;-79
2022/05/24 05:15:29;;;;;;;4.95;2.90;;;;;;;15.37;64.75;98638.28;10435973;28;20452;-79
2022/05/24 05:20:38;;;;;;;4.68;2.90;;;;;;;15.38;65.19;98642.59;10433357;28;20053;-79
2022/05/24 05:25:43;;;;;;;4.90;3.10;;;;;;;15.42;65.09;98648.38;10434577;28;20048;-79
2022/05/24 05:36:06;;;;;;;4.57;3.22;;;;;;;15.61;64.91;98664.03;10440503;28;20060;-83
2022/05/24 05:41:08;;;;;;;5.30;3.25;;;;;;;15.63;64.99;98669.97;10438555;28;20057;-82
2022/05/24 05:46:11;;;;;;;5.03;3.40;;;;;;;15.67;64.65;98681.88;10436902;28;20131;-81
2022/05/24 05:51:15;;;;;;;5.70;3.67;;;;;;;15.57;64.97;98709.28;10425790;28;20061;-81
2022/05/24 05:56:20;;;;;;;6.70;2.83;;;;;;;15.25;65.44;98739.59;10430984;28;20859;-82
2022/05/24 06:01:31;;;;;;;4.15;2.00;;;;;;;15.23;64.32;98735.44;10426807;28;20165;-82
2022/05/24 06:06:37;;;;;;;2.90;1.70;;;;;;;15.23;63.77;98745.97;10432765;28;20498;-81
2022/05/24 06:11:41;;;;;;;4.00;1.90;;;;;;;15.27;63.78;98740.28;10438084;28;20091;-81
2022/05/24 06:16:43;;;;;;;4.32;1.70;;;;;;;15.13;64.08;98746.06;10437023;28;20061;-82
2022/05/24 06:21:46;;;;;;;3.13;1.60;;;;;;;15.21;63.28;98734.75;10437776;28;20081;-82
2022/05/24 06:26:50;;;;;;;3.47;1.50;;;;;;;15.34;62.90;98732.59;10437067;28;20080;-81
2022/05/24 06:31:54;;;;;;;2.55;1.48;;;;;;;15.38;63.10;98729.53;10432887;28;20061;-81
2022/05/24 06:36:57;;;;;;;7.93;1.60;;;;;;;15.52;62.77;98744.00;10434279;28;20059;-82
2022/05/24 06:42:08;;;;;;;3.42;1.50;;;;;;;15.47;62.86;98785.72;10436355;28;20056;-81
2022/05/24 06:47:13;;;;;;;4.28;1.40;;;;;;;15.45;62.82;98802.69;10435900;28;20195;-81
2022/05/24 06:52:22;;;;;;;2.33;1.27;;;;;;;15.37;62.55;98832.41;10436296;28;20136;-81
2022/05/24 06:57:24;;;;;;;4.05;1.50;;;;;;;15.52;61.95;98824.84;10436592;28;20130;-82
2022/05/24 07:02:27;;;;;;;3.55;1.40;;;;;;;15.83;60.99;98826.16;10430239;28;20096;-81
2022/05/24 07:07:32;;;;;;;3.47;1.45;;;;;;;15.88;61.13;98839.69;10433717;28;20099;-81
2022/05/24 07:12:37;;;;;;;2.17;1.48;;;;;;;15.83;60.88;98834.06;10433305;28;20049;-81
2022/05/24 07:17:39;;;;;;;3.75;1.40;;;;;;;15.76;61.40;98848.81;10450919;28;20088;-81
2022/05/24 07:22:42;;;;;;;3.40;1.50;;;;;;;15.84;61.18;98857.63;10433791;28;20096;-81
2022/05/24 07:27:45;;;;;;;3.10;1.33;;;;;;;15.94;60.67;98863.66;10435807;28;20081;-81
2022/05/24 07:32:47;;;;;;;4.45;1.60;;;;;;;16.06;60.46;98853.72;10434041;28;20106;-81
2022/05/24 07:37:56;;;;;;;4.50;1.50;;;;;;;16.06;61.22;98861.63;10433474;28;20080;-81
2022/05/24 07:48:21;;;;;;;1.77;1.27;;;;;;;16.35;61.10;98856.06;10433039;28;20049;-81
2022/05/24 07:53:24;;;;;;;2.00;1.27;;;;;;;16.98;59.50;98862.75;10436120;28;20142;-81
2022/05/24 07:58:28;;;;;;;3.55;1.30;;;;;;;17.22;58.97;98870.78;10432494;28;20114;-81
2022/05/24 08:03:30;;;;;;;2.53;1.40;;;;;;;17.62;58.85;98876.25;10432114;28;20497;-81
2022/05/24 08:08:32;;;;;;;2.33;1.10;;;;;;;19.40;55.67;98888.38;10431495;28;20498;-81
2022/05/24 08:13:36;;;;;;;2.85;1.20;;;;;;;20.90;51.58;98885.00;10434468;28;20468;-81
2022/05/24 08:18:38;;;;;;;2.22;1.20;;;;;;;21.19;49.60;98883.34;10436604;28;21043;-81
2022/05/24 08:23:40;;;;;;;1.85;1.00;;;;;;;22.45;46.98;98888.06;10436796;28;20079;-81
2022/05/24 08:28:43;;;;;;;1.80;1.10;;;;;;;23.33;44.61;98880.28;10439936;28;20525;-81
2022/05/24 08:33:46;;;;;;;2.70;1.02;;;;;;;23.37;43.65;98901.00;10441492;28;20080;-81
2022/05/24 08:39:01;;;;;;;1.42;0.90;;;;;;;22.05;44.53;98918.81;10439311;28;20048;-80
2022/05/24 08:49:37;;;;;;;3.10;1.30;;;;;;;19.28;49.92;98944.59;10439845;28;20488;-80
2022/05/24 08:54:43;;;;;;;2.22;1.30;;;;;;;18.11;52.75;98955.72;10440108;28;20056;-81
2022/05/24 09:00:13;;;;;;;6.55;1.00;;;;;;;17.69;54.75;98964.53;10426732;28;20540;-81
2022/05/24 09:05:20;;;;;;;2.55;1.20;;;;;;;18.04;54.20;98970.56;10434084;28;20068;-81
2022/05/24 09:10:28;;;;;;;3.13;1.30;;;;;;;18.48;53.62;98977.31;10438991;28;20198;-81
2022/05/24 09:15:48;;;;;;;4.77;1.10;;;;;;;19.22;51.39;98988.53;10438070;28;20705;-81
2022/05/24 09:20:50;;;;;;;2.78;1.10;;;;;;;19.20;51.28;98990.53;10440129;28;20052;-80
2022/05/24 09:26:07;;;;;;;3.22;1.23;;;;;;;19.75;50.86;98971.94;10432077;28;20088;-80
2022/05/24 09:31:13;;;;;;;3.47;1.27;;;;;;;19.67;48.00;98993.19;10437404;28;20115;-81
2022/05/24 09:36:39;;;;;;;2.72;1.10;;;;;;;18.71;46.73;98996.03;10434127;28;20049;-80
2022/05/24 09:41:56;;;;;;;2.53;1.20;;;;;;;19.14;47.84;99012.41;10434717;28;20095;-81
2022/05/24 09:47:00;;;;;;;4.13;1.27;;;;;;;19.15;47.98;99024.69;10455607;28;20148;-81
2022/05/24 09:52:12;;;;;;;4.40;1.30;;;;;;;20.38;45.14;99021.41;10439474;28;20057;-80
2022/05/24 09:57:47;;;;;;;3.92;1.10;;;;;;;20.48;42.91;99025.47;10438467;28;20049;-82
2022/05/24 10:02:48;;;;;;;6.18;1.25;;;;;;;20.02;45.75;99029.06;10453121;28;20052;-81
2022/05/24 10:08:01;;;;;;;3.17;1.38;;;;;;;20.31;43.25;99031.91;10435434;28;20084;-81
2022/05/24 10:13:25;;;;;;;2.88;1.30;;;;;;;20.48;43.71;99028.13;10434578;28;20052;-80
2022/05/24 10:18:50;;;;;;;3.55;1.30;;;;;;;20.70;43.92;99022.03;10427780;28;20049;-81
2022/05/24 10:24:07;;;;;;;2.85;1.08;;;;;;;20.59;43.52;99032.25;10428024;28;20425;-81
2022/05/24 10:29:25;;;;;;;3.55;1.38;;;;;;;20.82;41.80;99030.41;10426466;28;20053;-81
2022/05/24 10:40:20;;;;;;;5.72;1.30;;;;;;;20.70;41.87;99032.66;10427689;28;20053;-81
2022/05/24 10:45:49;;;;;;;3.10;1.20;;;;;;;20.42;41.19;99028.84;10431422;28;20056;-81
2022/05/24 10:50:57;;;;;;;3.05;1.08;;;;;;;20.14;41.98;99038.28;10426733;28;20047;-81
2022/05/24 10:56:08;;;;;;;5.82;1.30;;;;;;;19.73;42.57;99048.22;10426356;28;20445;-81
2022/05/24 11:01:21;;;;;;;2.92;1.05;;;;;;;19.21;41.62;99055.81;10434205;28;20102;-80
2022/05/24 11:06:34;;;;;;;3.42;1.30;;;;;;;19.15;42.11;99048.53;10430442;28;20544;-81
2022/05/24 11:11:49;;;;;;;3.42;1.10;;;;;;;18.87;43.01;99044.50;10433539;28;20132;-80
2022/05/24 11:17:01;;;;;;;3.67;1.20;;;;;;;19.19;42.39;99049.84;10433818;28;20102;-81
2022/05/24 11:22:26;;;;;;;3.83;1.02;;;;;;;19.13;42.38;99055.81;10433902;28;20057;-81
2022/05/24 11:27:41;;;;;;;2.30;0.88;;;;;;;19.41;40.30;99054.44;10432059;28;20147;-80
2022/05/24 11:32:53;;;;;;;2.08;0.90;;;;;;;19.63;40.27;99049.41;10433042;28;20053;-80
2022/05/24 11:38:12;;;;;;;4.13;1.20;;;;;;;20.02;39.86;99051.13;10433695;28;20053;-82
2022/05/24 11:43:47;;;;;;;1.52;0.90;;;;;;;20.16;38.95;99041.59;10429619;28;20061;-81
2022/05/24 11:48:53;;;;;;;2.53;1.10;;;;;;;20.69;39.32;99031.00;10387001;28;20088;-81
2022/05/24 11:53:57;;;;;;;3.88;1.20;;;;;;;20.66;38.93;99049.94;10429424;28;20138;-81
2022/05/24 11:59:05;;;;;;;4.15;1.10;;;;;;;20.43;39.37;99057.06;10428185;28;20549;-81
2022/05/24 12:09:54;;;;;;;5.13;1.10;;;;;;;19.17;39.23;99075.69;10424241;28;20045;-81
2022/05/24 12:15:30;;;;;;;3.33;1.10;;;;;;;19.27;39.41;99078.16;10426650;28;20049;-81
2022/05/24 12:20:35;;;;;;;4.35;1.73;;;;;;;19.72;38.74;99089.03;10412808;28;20041;-81
2022/05/24 12:25:58;;;;;;;4.15;1.10;;;;;;;20.12;38.59;99090.72;10426042;28;20103;-82
2022/05/24 12:31:13;;;;;;;2.20;1.00;;;;;;;20.45;38.39;99094.06;10422774;28;20060;-82
2022/05/24 12:36:39;;;;;;;3.83;1.00;;;;;;;20.59;37.46;99091.53;10422544;28;20072;-81
2022/05/24 12:42:07;;;;;;;2.58;1.00;;;;;;;20.82;36.50;99097.69;10424173;28;20179;-82
2022/05/24 12:47:11;;;;;;;5.03;1.30;;;;;;;20.69;37.58;99100.09;10428965;28;20084;-81
2022/05/24 12:52:18;;;;;;;3.20;1.10;;;;;;;20.78;38.50;99107.03;10427199;28;20419;-81
2022/05/24 12:57:40;;;;;;;2.55;1.10;;;;;;;20.77;37.18;99107.19;10427504;28;20052;-81
2022/05/24 13:02:47;;;;;;;3.75;1.25;;;;;;;20.40;38.52;99117.69;10433581;28;20064;-81
2022/05/24 13:07:53;;;;;;;1.85;0.88;;;;;;;20.07;39.33;99124.94;10431730;28;20127;-80
2022/05/24 13:13:03;;;;;;;3.17;1.20;;;;;;;20.23;39.64;99119.56;10436596;28;20922;-79
2022/05/24 13:18:46;;;;;;;2.25;0.98;;;;;;;20.51;38.58;99118.09;10433436;28;20569;-80
2022/05/24 13:23:48;;;;;;;1.73;1.02;;;;;;;20.87;39.02;99108.59;10425267;28;20569;-80
2022/05/24 13:28:57;;;;;;;4.80;1.08;;;;;;;20.88;37.92;99091.66;10431242;28;20119;-79
2022/05/24 13:34:24;;;;;;;2.67;1.10;;;;;;;20.85;37.14;99094.66;10434851;28;20077;-79
2022/05/24 13:39:46;;;;;;;3.20;1.05;;;;;;;20.99;36.78;99090.41;10433267;28;20049;-80
2022/05/24 13:45:15;;;;;;;2.65;1.10;;;;;;;20.88;37.21;99097.00;10433810;28;20048;-79
2022/05/24 13:50:25;;;;;;;1.42;0.93;;;;;;;20.75;36.82;99104.72;10434545;28;20060;-79
2022/05/24 13:55:38;;;;;;;1.20;0.90;;;;;;;21.08;35.36;99106.13;10434435;28;20135;-79
2022/05/24 14:00:59;;;;;;;4.93;1.10;;;;;;;21.23;35.39;99114.16;10446739;28;20175;-80
2022/05/24 14:06:12;;;;;;;2.28;1.08;;;;;;;21.18;35.00;99113.03;10433070;28;20148;-79
2022/05/24 14:11:33;;;;;;;3.30;0.97;;;;;;;21.20;35.43;99119.00;10427974;28;20049;-79
2022/05/24 14:16:35;;;;;;;8.23;0.75;;;;;;;21.07;34.27;99120.41;10431749;28;20114;-79
2022/05/24 14:21:40;;;;;;;3.95;1.23;;;;;;;21.21;34.30;99133.97;10426933;28;20049;-79
2022/05/24 14:26:51;;;;;;;3.92;0.85;;;;;;;21.32;32.34;99141.53;10429384;28;20079;-79
2022/05/24 14:31:54;;;;;;;3.38;0.95;;;;;;;21.30;34.60;99130.22;10430069;28;20088;-79
2022/05/24 14:36:56;;;;;;;2.22;1.10;;;;;;;21.03;35.14;99132.41;10431590;28;20124;-79
2022/05/24 14:41:58;;;;;;;2.53;0.90;;;;;;;20.62;36.70;99133.66;10427764;28;20057;-79
2022/05/24 14:47:01;;;;;;;1.75;0.82;;;;;;;20.78;36.62;99152.22;10427358;28;20114;-78
2022/05/24 14:52:07;;;;;;;4.97;1.08;;;;;;;20.76;36.47;99145.41;10427076;28;20067;-78
2022/05/24 14:57:10;;;;;;;3.38;0.98;;;;;;;20.42;36.59;99139.59;10428670;28;20480;-78
2022/05/24 15:02:14;;;;;;;4.28;1.08;;;;;;;20.37;37.75;99139.25;10427880;28;20085;-78
2022/05/24 15:19:00;;;;;;;4.03;1.10;;;;;;;20.31;34.75;99150.56;10424378;28;20036;-78
2022/05/24 15:24:08;;;;;;;2.38;1.00;;;;;;;20.23;35.18;99148.78;10429277;28;20057;-78
2022/05/24 15:29:10;;;;;;;3.67;0.90;;;;;;;20.15;34.66;99154.13;10427681;28;20051;-79
2022/05/24 15:34:13;;;;;;;4.07;1.00;;;;;;;19.77;34.52;99160.13;10425303;28;20100;-79
2022/05/24 15:39:16;;;;;;;1.55;0.90;;;;;;;19.57;35.02;99178.25;10425545;28;20085;-78
2022/05/24 15:44:19;;;;;;;2.90;0.88;;;;;;;19.46;34.94;99174.09;10425932;28;20084;-78
2022/05/24 15:49:22;;;;;;;3.75;1.08;;;;;;;19.36;35.33;99176.09;10427737;28;20459;-78
2022/05/24 15:54:25;;;;;;;1.58;0.80;;;;;;;19.42;35.60;99199.28;10426006;28;20506;-78
2022/05/24 15:59:29;;;;;;;3.10;0.95;;;;;;;19.09;34.22;99194.97;10426337;28;20060;-78
2022/05/24 16:10:04;;;;;;;6.38;0.93;;;;;;;19.03;35.35;99216.78;10426630;28;20364;-78
2022/05/24 16:15:08;;;;;;;1.70;0.90;;;;;;;18.56;36.01;99226.22;10425271;28;20148;-79
2022/05/24 16:20:11;;;;;;;1.67;0.90;;;;;;;18.40;36.38;99223.50;10423378;28;20088;-79
2022/05/24 16:25:13;;;;;;;2.58;1.30;;;;;;;18.16;36.90;99242.69;10423403;28;20132;-80
2022/05/24 16:30:16;;;;;;;4.88;1.60;;;;;;;18.20;37.47;99248.56;10423829;28;20060;-78
2022/05/24 16:35:18;;;;;;;5.22;1.30;;;;;;;18.30;37.59;99251.91;10424981;28;20049;-78
2022/05/24 16:40:21;;;;;;;1.67;0.95;;;;;;;18.47;37.67;99249.19;10433867;28;20048;-78
2022/05/24 16:45:24;;;;;;;1.45;0.80;;;;;;;18.77;37.36;99249.66;10430312;28;20056;-80
2022/05/24 16:50:26;;;;;;;3.72;1.10;;;;;;;18.73;37.48;99254.44;10433392;28;20052;-80
2022/05/24 17:00:51;;;;;;;2.70;0.90;;;;;;;18.69;37.97;99250.44;10429516;28;20055;-80
2022/05/24 17:05:53;;;;;;;1.55;0.80;;;;;;;18.60;38.55;99254.91;10434320;28;21007;-80
2022/05/24 17:10:55;;;;;;;4.25;0.93;;;;;;;18.56;38.52;99258.00;10431250;28;20395;-79
2022/05/24 17:16:00;;;;;;;2.60;1.10;;;;;;;18.71;38.87;99266.19;10432236;28;20566;-79
2022/05/24 17:21:04;;;;;;;3.30;0.98;;;;;;;18.79;38.38;99259.09;10429176;28;20632;-79
2022/05/24 17:26:05;;;;;;;1.65;0.90;;;;;;;18.91;38.46;99262.28;10433771;28;20631;-80
2022/05/24 17:31:08;;;;;;;4.00;1.10;;;;;;;18.81;39.49;99267.72;10432162;28;20398;-79
2022/05/24 17:36:10;;;;;;;2.15;1.02;;;;;;;18.54;39.45;99273.22;10432755;28;20473;-79
2022/05/24 17:41:17;;;;;;;3.47;1.40;;;;;;;18.28;40.72;99275.88;10425695;28;20145;-79
2022/05/24 17:46:20;;;;;;;2.28;0.95;;;;;;;18.05;41.44;99281.81;10425844;28;20095;-79
2022/05/24 17:51:43;;;;;;;2.17;0.98;;;;;;;17.92;42.18;99278.72;10433866;28;20068;-79
2022/05/24 17:56:45;;;;;;;2.75;0.90;;;;;;;17.84;42.38;99285.63;10428006;28;20052;-75
2022/05/24 18:01:47;;;;;;;2.40;1.00;;;;;;;17.82;42.88;99290.25;10426649;28;20540;-75
2022/05/24 18:06:49;;;;;;;3.70;1.00;;;;;;;17.61;42.98;99296.81;10430363;28;20137;-76
2022/05/24 18:11:51;;;;;;;2.05;0.88;;;;;;;17.16;43.42;99304.75;10424833;28;20045;-75
2022/05/24 18:16:55;;;;;;;3.60;0.95;;;;;;;17.10;42.45;99297.41;10420716;28;20051;-76
2022/05/24 18:22:01;;;;;;;2.08;1.00;;;;;;;16.97;42.83;99304.88;10425431;28;20482;-76
2022/05/24 18:37:53;;;;;;;2.65;0.90;;;;;;;16.78;43.03;99323.44;10422206;28;20712;-76
2022/05/24 18:43:16;;;;;;;2.75;1.00;;;;;;;16.63;43.22;99327.56;10425885;28;20064;-76
2022/05/24 18:48:18;;;;;;;3.03;0.80;;;;;;;16.55;43.63;99330.88;10425180;28;20064;-76
2022/05/24 18:53:20;;;;;;;1.45;0.75;;;;;;;16.34;44.45;99338.16;10427732;28;20144;-77
2022/05/24 18:58:23;;;;;;;1.73;0.80;;;;;;;16.24;45.32;99340.78;10425461;28;20505;-77
2022/05/24 19:03:25;;;;;;;3.55;0.98;;;;;;;15.92;45.53;99356.09;10429204;28;20119;-77
2022/05/24 19:08:29;;;;;;;1.88;0.80;;;;;;;15.35;47.01;99361.28;10422259;28;20988;-78
2022/05/24 19:13:31;;;;;;;2.75;0.95;;;;;;;15.21;47.24;99370.41;10427748;28;20153;-79
2022/05/24 19:18:33;;;;;;;2.05;0.95;;;;;;;15.00;48.40;99382.00;10425062;28;20045;-79
2022/05/24 19:23:35;;;;;;;2.35;0.90;;;;;;;14.89;48.92;99387.34;10428433;28;20499;-79
2022/05/24 19:28:37;;;;;;;4.72;1.08;;;;;;;14.74;49.44;99396.53;10430042;28;20048;-78
2022/05/24 19:33:40;;;;;;;1.75;0.95;;;;;;;14.52;49.98;99411.53;10424780;28;20123;-78
2022/05/24 19:44:23;;;;;;;3.40;1.05;;;;;;;14.22;51.61;99423.72;10297161;28;20720;-79
2022/05/24 19:49:26;;;;;;;4.45;1.00;;;;;;;14.08;51.94;99418.78;10399739;28;20068;-79
2022/05/24 19:54:29;;;;;;;2.40;1.00;;;;;;;13.94;52.41;99427.81;10425124;28;20045;-79
2022/05/24 19:59:32;;;;;;;0.98;0.68;;;;;;;13.56;53.08;99443.16;10428518;28;20132;-78
2022/05/24 20:04:56;;;;;;;4.22;0.80;;;;;;;13.37;54.18;99442.94;10428157;28;20064;-79
2022/05/24 20:09:59;;;;;;;1.85;0.88;;;;;;;13.37;54.31;99464.75;10429803;28;20759;-78
2022/05/24 20:15:02;;;;;;;2.03;0.80;;;;;;;13.20;54.50;99483.66;10426281;28;20486;-79
2022/05/24 20:20:05;;;;;;;2.42;1.08;;;;;;;13.05;54.97;99490.06;10430888;28;20049;-79
2022/05/24 20:25:09;;;;;;;3.40;1.00;;;;;;;12.93;55.30;99496.25;10429724;28;21008;-78
2022/05/24 20:30:13;;;;;;;2.15;1.02;;;;;;;12.93;55.09;99498.88;10428494;28;20051;-78
2022/05/24 20:35:16;;;;;;;1.40;0.80;;;;;;;12.95;55.04;99495.19;10429520;28;20060;-79
2022/05/24 20:40:19;;;;;;;4.20;0.93;;;;;;;12.88;55.55;99499.22;10427249;28;20057;-79
2022/05/24 20:45:21;;;;;;;2.38;1.10;;;;;;;12.90;56.25;99499.94;10429238;28;20483;-79
2022/05/24 20:50:25;;;;;;;4.88;1.00;;;;;;;13.02;56.19;99499.97;10425378;28;20049;-79
2022/05/24 20:55:28;;;;;;;1.95;0.90;;;;;;;13.05;56.27;99499.75;10426112;28;20041;-79
2022/05/24 21:00:31;;;;;;;3.00;1.08;;;;;;;13.01;56.50;99508.78;10429844;28;20633;-79
2022/05/24 21:05:33;;;;;;;4.55;1.02;;;;;;;13.06;56.18;99518.00;10429557;28;20140;-79
2022/05/24 21:10:35;;;;;;;2.97;1.00;;;;;;;12.88;56.80;99524.66;10424250;28;20970;-79
2022/05/24 21:15:38;;;;;;;4.53;1.20;;;;;;;12.84;56.90;99537.16;10425105;28;20053;-76
2022/05/24 21:20:41;;;;;;;2.65;1.02;;;;;;;12.75;57.04;99548.34;10422598;28;20102;-78
2022/05/24 21:31:09;;;;;;;4.43;1.10;;;;;;;12.52;57.20;99545.75;10432804;28;20798;-78
2022/05/24 21:36:11;;;;;;;4.60;1.20;;;;;;;12.31;57.65;99545.56;10434011;28;20080;-78
2022/05/24 21:41:13;;;;;;;3.20;1.10;;;;;;;12.24;57.79;99546.91;10428155;28;20072;-78
2022/05/24 21:46:15;;;;;;;2.40;1.13;;;;;;;12.20;58.10;99541.97;10431441;28;20139;-77
2022/05/24 21:51:17;;;;;;;6.30;1.17;;;;;;;12.17;58.27;99550.09;10432103;28;20573;-78
2022/05/24 21:56:21;;;;;;;3.38;1.10;;;;;;;12.15;58.45;99545.78;10433715;28;20136;-77
2022/05/24 22:01:23;;;;;;;4.60;1.20;;;;;;;12.07;58.57;99555.13;10432997;28;20166;-78
2022/05/24 22:06:28;;;;;;;3.10;1.10;;;;;;;11.96;59.02;99565.56;10432048;28;20063;-78
2022/05/24 22:11:35;;;;;;;3.78;1.10;;;;;;;11.85;59.64;99565.47;10432071;28;20061;-78
2022/05/24 22:16:39;;;;;;;2.25;1.17;;;;;;;11.91;59.31;99572.91;10431576;28;20128;-78
2022/05/24 22:21:40;;;;;;;3.08;0.90;;;;;;;11.89;59.23;99566.94;10428130;28;20056;-78
2022/05/24 22:26:42;;;;;;;4.68;1.60;;;;;;;11.82;59.60;99568.31;10427587;28;21050;-78
2022/05/24 22:31:46;;;;;;;2.65;1.20;;;;;;;11.78;59.64;99578.19;10426258;28;20088;-78
2022/05/24 22:36:48;;;;;;;2.63;1.10;;;;;;;11.73;59.83;99584.69;10425141;28;20076;-77
2022/05/24 22:41:53;;;;;;;3.55;1.40;;;;;;;11.63;60.22;99584.50;10427819;28;20092;-78
2022/05/24 22:46:55;;;;;;;5.22;1.30;;;;;;;11.32;60.60;99595.38;10425266;28;20080;-78
2022/05/24 22:52:35;;;;;;;3.15;1.15;;;;;;;11.32;61.37;99599.81;10425353;28;20079;-78
2022/05/24 22:57:37;;;;;;;1.23;1.00;;;;;;;11.37;60.87;99593.31;10429964;28;20119;-78
2022/05/24 23:02:40;;;;;;;5.10;1.20;;;;;;;11.45;60.87;99600.63;10435458;28;20128;-78
2022/05/24 23:07:45;;;;;;;3.45;1.10;;;;;;;11.61;60.70;99596.00;10437063;28;20052;-78
2022/05/24 23:12:48;;;;;;;4.28;1.20;;;;;;;11.73;60.36;99605.63;10435248;28;20053;-78
2022/05/24 23:17:50;;;;;;;3.45;1.10;;;;;;;11.64;59.96;99601.06;10428654;28;20888;-78
2022/05/24 23:22:52;;;;;;;4.43;1.10;;;;;;;11.45;60.64;99604.09;10425598;28;20186;-78
2022/05/24 23:27:54;;;;;;;4.07;1.30;;;;;;;11.32;60.44;99612.91;10428558;28;20157;-78
2022/05/24 23:32:56;;;;;;;6.82;1.20;;;;;;;11.22;60.70;99610.88;10429740;28;20383;-78
2022/05/24 23:37:59;;;;;;;1.85;1.20;;;;;;;11.16;60.90;99607.84;10429618;28;20052;-78
2022/05/24 23:43:03;;;;;;;3.10;1.20;;;;;;;11.07;61.14;99614.53;10424903;28;20526;-78
2022/05/24 23:48:05;;;;;;;7.13;1.30;;;;;;;10.95;61.33;99615.31;10428593;28;20099;-78
2022/05/24 23:53:07;;;;;;;2.95;1.20;;;;;;;10.84;61.90;99624.81;10428709;28;20049;-78
2022/05/24 23:58:09;;;;;;;3.72;1.30;;;;;;;10.83;61.76;99617.88;10429517;28;20084;-78
